Chester, South Dakota
Current Conditions -  °F | °C
As of 2:50 PM on Tuesday 27 Jan 2015 (Local Time) from KMDS Reporting Station
Overcast Overcast  
Wind Chill: 22°   Ceiling: 400
Heat Index: 32°   Visibility: 10mi
Dew Point: 32°   Wind: 14mph
Humidity: 100%   Direction: 150°SSE
Pressure: 29.99"   Gusts: 20mph
Location:  43.89°N, 96.93°W
Report Text: KMDS 272050Z AUTO 15012G17KT 10SM OVC004 00/00 A2999 RMK AO2
Loading
Personal Weather Stations






























Interactive Weather Map New forecast layout! Learn more

10-Day Weather Forecast

Advertisements
Track Severe Weather on mobile